logo
App data

Wild Island Quest

In an endless air ocean of an alien world, small lonesome plots of land float above the abyss. But sometimes approach each other, and lands which have never met before, reveal their secrets.
Store | Hub | SteamDB
Developer: NLB project Publisher: NLB project
Genre: Adventure, Indie
Languages: English, Russian
Tags: Indie (31), Adventure (29), Visual Novel (17), Choices Matter (16), Interactive Fiction (15), Multiple Endings (14), Choose Your Own Adventure (13)
Category: Single-player, Steam Achievements, Steam Trading Cards, Steam Cloud
Release date: Sep 4, 2015
Price: $1.99
Old userscore: 48% Owners: 50,000 .. 100,000
Followers: 265
Peak concurrent players yesterday: 1
YouTube stats: 35 views and 2 comments for top 50 videos uploaded last week, 0 new videos uploaded yesterday.
Playtime total: 02:51 (average) 03:29 (median)

Steam Spy is still in beta, so expect major bugs.

Owners data:

Access restricted.

This feature is only available to users with special access rights. Sorry.

If you want to proceed, you need to register or log in first and then back Steam Spy on Patreon. Look for Indie or Pro pledge.

Don't forget to use the same email as on Steam Spy!

Audience in 2 weeks:

Access restricted.

This feature is only available to users with special access rights. Sorry.

If you want to proceed, you need to register or log in first and then back Steam Spy on Patreon. Look for Indie or Pro pledge.

Don't forget to use the same email as on Steam Spy!

Peak daily concurrent players:

CCU data courtesy of SteamDB. Used with permission.

Hourly concurrent players:

Followers over time

Access restricted.

This feature is only available to users with special access rights. Sorry.

If you want to proceed, you need to register or log in first and then back Steam Spy on Patreon. Look for Indie or Pro pledge.

Don't forget to use the same email as on Steam Spy!

Views for top 50 videos on YouTube for this game:

Games similar to this one:

# Game Release date
Price
Score rank
(Userscore / Metascore)
Owners
Players
Playtime (Median)
1 Space Moth DX Jan 22, 2016 $4.99N/A (N/A)20,000 .. 50,0000%00:00 (00:00)
2 Cube Land Arena Mar 8, 2019 $0.99N/A (N/A)20,000 .. 50,0000%00:00 (00:00)
3 PERFECT ANGLE: The puzzle game based on optical illusions Dec 22, 2015 $2.99N/A (N/A)100,000 .. 200,0000%00:00 (00:00)
4 Hero Quest: Tower Conflict Apr 13, 2016 $0.99N/A (N/A)200,000 .. 500,0000%00:00 (00:00)
5 Doodle Kingdom Jun 9, 2016 $8.99N/A (N/A)20,000 .. 50,0000%00:00 (00:00)
6 CrazyCars3D Mar 28, 2016 $2.99N/A (N/A)50,000 .. 100,0000%00:00 (00:00)
7 Evertown Jan 30, 2020 $1.99N/A (N/A)0 .. 20,0000%00:00 (00:00)
8 OPUS: The Day We Found Earth Apr 21, 2016 $8.99N/A (N/A)50,000 .. 100,0000%00:00 (00:00)
9 10 Second Ninja X Jul 19, 2016 $0.99N/A (N/A)20,000 .. 50,0000%00:00 (00:00)
10 Wrath of Anna Apr 2, 2018 $19.99N/A (N/A)50,000 .. 100,0000%00:00 (00:00)
11 Empire of the Gods May 13, 2008 $1.99N/A (N/A)20,000 .. 50,0000%00:00 (00:00)
12 A Study in Steampunk: Choice by Gaslight Nov 20, 2015 $3.99N/A (N/A)0 .. 20,0000%00:00 (00:00)
13 Mindless Running Feb 22, 2016 $0.99N/A (N/A)20,000 .. 50,0000%00:00 (00:00)
14 Godus Wars Feb 3, 2016 $14.99N/A (N/A)50,000 .. 100,0000%00:00 (00:00)
15 Bunker Punks May 28, 2018 $14.99N/A (N/A)0 .. 20,0000%00:00 (00:00)
16 Bell Ringer Mar 6, 2016 $6.99N/A (N/A)200,000 .. 500,0000%00:00 (00:00)
17 Amigdala Mar 28, 2016 $5.99N/A (N/A)20,000 .. 50,0000%00:00 (00:00)
18 OTTTD Aug 6, 2014 $7.99N/A (N/A)50,000 .. 100,0000%00:00 (00:00)
19 Frederic: Evil Strikes Back May 23, 2014 $7.99N/A (N/A)50,000 .. 100,0000%00:00 (00:00)
20 The Masterplan Jun 4, 2015 $19.99N/A (N/A/68%)100,000 .. 200,0000%00:00 (00:00)
21 Rhythm Destruction Jun 16, 2014 $4.99N/A (N/A)50,000 .. 100,0000%00:00 (00:00)
22 Velocibox Sep 8, 2014 $4.99N/A (N/A)50,000 .. 100,0000%00:00 (00:00)
23 Boson X Sep 15, 2014 $0.98N/A (N/A)50,000 .. 100,0000%00:00 (00:00)
24 Squishy the Suicidal Pig Oct 23, 2014 $5.99N/A (N/A)200,000 .. 500,0000%00:00 (00:00)
25 Iron Fisticle Sep 16, 2014 $8.99N/A (N/A)20,000 .. 50,0000%00:00 (00:00)
26 Great Permutator Sep 15, 2014 $6.99N/A (N/A)20,000 .. 50,0000%00:00 (00:00)
27 Fancy Skulls Jun 16, 2014 $8.99N/A (N/A)20,000 .. 50,0000%00:00 (00:00)
28 TownCraft Feb 25, 2015 $9.99N/A (N/A)0 .. 20,0000%00:00 (00:00)
29 Curses 'N Chaos Aug 18, 2015 $9.99N/A (N/A)20,000 .. 50,0000%00:00 (00:00)
30 Dreaming Sarah Mar 12, 2015 $5.99N/A (N/A)100,000 .. 200,0000%00:00 (00:00)
31 Back to Bed Aug 6, 2014 $5.99N/A (N/A)500,000 .. 1,000,0000%00:00 (00:00)
32 Captain Forever Remix Jun 3, 2016 $9.99N/A (N/A)50,000 .. 100,0000%00:00 (00:00)
33 NEON STRUCT May 20, 2015 $17.99N/A (N/A/62%)20,000 .. 50,0000%00:00 (00:00)
34 Frederic: Resurrection of Music May 16, 2014 $2.99N/A (N/A)100,000 .. 200,0000%00:00 (00:00)
35 New Retro Arcade: Neon Nov 19, 2019 $19.99N/A (N/A)0 .. 20,0000%00:00 (00:00)
36 Alteric Jul 13, 2016 $3.99N/A (N/A)20,000 .. 50,0000%00:00 (00:00)
37 Scanner Sombre Apr 26, 2017 $5.99N/A (N/A/67%)100,000 .. 200,0000%00:00 (00:00)
38 Dinosaur Forest May 17, 2017 $1.99N/A (N/A)50,000 .. 100,0000%00:00 (00:00)
39 Reflection of Mine Feb 24, 2017 $7.99N/A (N/A)0 .. 20,0000%00:00 (00:00)
40 Wheels of Aurelia Sep 20, 2016 $0.99N/A (N/A/63%)20,000 .. 50,0000%00:00 (00:00)
41 Star Drifter Jun 1, 2016 $0.99N/A (N/A)200,000 .. 500,0000%00:00 (00:00)
42 Joana's Life Sep 1, 2016 $5.99N/A (N/A)50,000 .. 100,0000%00:00 (00:00)
43 Call Of The Mighty Warriors Mar 1, 2019 $0.99N/A (N/A)20,000 .. 50,0000%00:00 (00:00)
44 It Comes Around - A Kinetic Novel Sep 29, 2016 $2.99N/A (N/A)20,000 .. 50,0000%00:00 (00:00)
45 Karma Miwa Aug 12, 2016 $0.99N/A (N/A)20,000 .. 50,0000%00:00 (00:00)
46 Dashy Square Apr 26, 2016 $2.99N/A (N/A)0 .. 20,0000%00:00 (00:00)
47 Super Duper Party Pooper Jun 6, 2016 $0.99N/A (N/A/40%)100,000 .. 200,0000%00:00 (00:00)
48 Moonstone Tavern - A Fantasy Tavern Sim! May 13, 2016 $7.99N/A (N/A)20,000 .. 50,0000%00:00 (00:00)
49 DashBored Jun 13, 2016 $4.99N/A (N/A)20,000 .. 50,0000%00:00 (00:00)
50 NORTH Apr 27, 2016 $0.49N/A (N/A)200,000 .. 500,0000%00:00 (00:00)
51 Bohemian Killing Jul 21, 2016 $12.99N/A (N/A/55%)0 .. 20,0000%00:00 (00:00)
52 Bloody Streets Mar 12, 2015 $4.99N/A (N/A)20,000 .. 50,0000%00:00 (00:00)
53 Traverser Jul 9, 2015 $14.99N/A (N/A/61%)0 .. 20,0000%00:00 (00:00)
54 Chronicles of a Dark Lord: Episode 1 Tides of Fate Complete Dec 19, 2014 N/AN/A (N/A)50,000 .. 100,0000%00:00 (00:00)
55 The Deer God Feb 27, 2015 $14.99N/A (N/A/59%)20,000 .. 50,0000%00:00 (00:00)
56 Bermuda Mar 17, 2015 $2.99N/A (N/A)50,000 .. 100,0000%00:00 (00:00)
57 Pix the Cat Jan 29, 2015 $9.99N/A (N/A/77%)50,000 .. 100,0000%00:00 (00:00)
58 TIMEframe Jul 7, 2015 $5.99N/A (N/A)50,000 .. 100,0000%00:00 (00:00)
59 Tulpa Jan 29, 2015 $2.99N/A (N/A)50,000 .. 100,0000%00:00 (00:00)
60 On A Roll 3D Feb 12, 2015 $3.99N/A (N/A)50,000 .. 100,0000%00:00 (00:00)
61 Phoenix Force Nov 13, 2014 $0.99N/A (N/A)50,000 .. 100,0000%00:00 (00:00)
62 Chariot Nov 12, 2014 $14.99N/A (N/A/76%)50,000 .. 100,0000%00:00 (00:00)
63 Marvin's Mittens Dec 17, 2014 $5.99N/A (N/A)0 .. 20,0000%00:00 (00:00)
64 Ninja Pizza Girl Sep 30, 2015 $6.99N/A (N/A/82%)50,000 .. 100,0000%00:00 (00:00)
65 Dwarf Tower May 5, 2014 $0.99N/A (N/A)20,000 .. 50,0000%00:00 (00:00)
66 Horizon Shift May 29, 2015 $4.99N/A (N/A)100,000 .. 200,0000%00:00 (00:00)
67 Sky Mercenaries Dec 16, 2014 $9.99N/A (N/A)20,000 .. 50,0000%00:00 (00:00)
68 Super Life of Pixel Dec 20, 2018 $9.99N/A (N/A)20,000 .. 50,0000%00:00 (00:00)
69 Ms. Splosion Man Apr 3, 2013 $9.99N/A (N/A)50,000 .. 100,0000%00:00 (00:00)
70 Ultratron Mar 18, 2013 $9.99N/A (N/A)50,000 .. 100,0000%00:00 (00:00)
71 SOL: Exodus Jan 25, 2012 $7.99N/A (N/A/57%)50,000 .. 100,0000%00:00 (00:00)
72 Cargo Commander Nov 1, 2012 $2.99N/A (N/A)100,000 .. 200,0000%00:00 (00:00)
73 Titan Attacks! Feb 3, 2012 $9.99N/A (N/A)100,000 .. 200,0000%00:00 (00:00)
74 Puddle Nov 9, 2012 $7.99N/A (N/A)50,000 .. 100,0000%00:00 (00:00)
75 BIT.TRIP CORE Oct 2, 2012 $1.49N/A (N/A)20,000 .. 50,0000%00:00 (00:00)
76 Papo & Yo Apr 18, 2013 $14.99N/A (N/A/70%)200,000 .. 500,0000%00:00 (00:00)
77 BIT.TRIP VOID Dec 19, 2012 $1.49N/A (N/A)20,000 .. 50,0000%00:00 (00:00)
78 Dream Jul 31, 2015 $8.99N/A (N/A/59%)20,000 .. 50,0000%00:00 (00:00)
79 Tales From Space: Mutant Blobs Attack Aug 15, 2012 $9.99N/A (N/A/83%)100,000 .. 200,0000%00:00 (00:00)
80 Critter Crunch Sep 11, 2012 $6.99N/A (N/A)20,000 .. 50,0000%00:00 (00:00)
81 Sugar Cube: Bittersweet Factory Nov 7, 2012 $6.99N/A (N/A)20,000 .. 50,0000%00:00 (00:00)
82 BIT.TRIP BEAT Nov 2, 2010 $1.49N/A (N/A)0 .. 20,0000%00:00 (00:00)
83 Party of Sin Dec 13, 2012 $5.99N/A (N/A)50,000 .. 100,0000%00:00 (00:00)
84 Super Splatters Jun 26, 2013 N/AN/A (N/A/73%)100,000 .. 200,0000%00:00 (00:00)
85 Home Jun 1, 2012 $4.99N/A (N/A/69%)200,000 .. 500,0000%00:00 (00:00)
86 Pixel Gladiator Sep 8, 2017 $4.99N/A (N/A)20,000 .. 50,0000%00:00 (00:00)
87 GORN Jul 18, 2019 $19.99N/A (N/A/85%)200,000 .. 500,0000%00:00 (00:00)
88 Snake Pass Mar 28, 2017 $19.99N/A (N/A/71%)100,000 .. 200,0000%00:00 (00:00)
89 Open Sorcery Feb 22, 2017 $0.51N/A (N/A)0 .. 20,0000%00:00 (00:00)
90 Wayout Nov 4, 2016 $0.49N/A (N/A)50,000 .. 100,0000%00:00 (00:00)
91 Guns of Icarus Alliance Mar 31, 2017 $4.99N/A (N/A)50,000 .. 100,0000%00:00 (00:00)
92 Witch It May 31, 2017 $9.89N/A (N/A)200,000 .. 500,0000%00:00 (00:00)
93 The Archotek Project Apr 28, 2017 $0.54N/A (N/A)200,000 .. 500,0000%00:00 (00:00)
94 Introvert Quest Mar 15, 2017 $4.99N/A (N/A)100,000 .. 200,0000%00:00 (00:00)
95 Distant Space Dec 20, 2016 $0.99N/A (N/A)50,000 .. 100,0000%00:00 (00:00)
96 Starship Annihilator Sep 2, 2016 $0.99N/A (N/A)50,000 .. 100,0000%00:00 (00:00)
97 Child Phobia: Nightcoming Fears Dec 20, 2016 $1.99N/A (N/A)20,000 .. 50,0000%00:00 (00:00)
98 The Gleam: VR Escape the Room Oct 14, 2016 $3.99N/A (N/A)100,000 .. 200,0000%00:00 (00:00)
99 Mistwood Heroes Dec 30, 2016 $0.99N/A (N/A)20,000 .. 50,0000%00:00 (00:00)
100 mr.President Prologue Episode Sep 20, 2016 $0.99N/A (N/A)50,000 .. 100,0000%00:00 (00:00)
101 Three Kingdoms The Last Warlord | 三國志漢末霸業 May 26, 2017 $8.49N/A (N/A)20,000 .. 50,0000%00:00 (00:00)
102 Disillusions Manga Horror Apr 6, 2013 $0.99N/A (N/A)20,000 .. 50,0000%00:00 (00:00)
103 Orbit HD Mar 18, 2015 $1.99N/A (N/A)20,000 .. 50,0000%00:00 (00:00)
104 Rats - Time is running out! Aug 19, 2015 $4.99N/A (N/A)50,000 .. 100,0000%00:00 (00:00)
105 Big Action Mega Fight! Jan 12, 2016 $1.99N/A (N/A)20,000 .. 50,0000%00:00 (00:00)
106 Reflections Jun 26, 2015 $9.99N/A (N/A)0 .. 20,0000%00:00 (00:00)
107 Gryphon Knight Epic Aug 20, 2015 $6.99N/A (N/A/55%)20,000 .. 50,0000%00:00 (00:00)
108 Porcunipine May 21, 2015 $9.99N/A (N/A)20,000 .. 50,0000%00:00 (00:00)
109 Canabalt Apr 30, 2015 $2.99N/A (N/A)20,000 .. 50,0000%00:00 (00:00)
110 Star Horizon May 28, 2015 $4.99N/A (N/A)20,000 .. 50,0000%00:00 (00:00)
111 In Space We Brawl Jul 17, 2015 N/AN/A (N/A)0 .. 20,0000%00:00 (00:00)
112 NEO AQUARIUM - The King of Crustaceans - Jun 8, 2015 $8.99N/A (N/A)20,000 .. 50,0000%00:00 (00:00)
113 Glorkian Warrior: The Trials Of Glork Mar 24, 2015 $3.99N/A (N/A)20,000 .. 50,0000%00:00 (00:00)
114 Reign of Bullets Aug 19, 2015 $9.99N/A (N/A)0 .. 20,0000%00:00 (00:00)
115 Countless Rooms of Death Feb 20, 2014 $0.99N/A (N/A)20,000 .. 50,0000%00:00 (00:00)
116 Home is Where One Starts... May 12, 2015 $2.99N/A (N/A)20,000 .. 50,0000%00:00 (00:00)
117 It came from space and ate our brains Mar 19, 2015 $14.99N/A (N/A)50,000 .. 100,0000%00:00 (00:00)
118 Beyond Eyes Aug 11, 2015 $14.99N/A (N/A/60%)100,000 .. 200,0000%00:00 (00:00)
119 Luna Sky Oct 2, 2015 $12.99N/A (N/A)50,000 .. 100,0000%00:00 (00:00)
120 Monument Jun 5, 2015 $3.99N/A (N/A)50,000 .. 100,0000%00:00 (00:00)
121 Pixel Star May 22, 2015 $2.99N/A (N/A)20,000 .. 50,0000%00:00 (00:00)
122 Western Press Apr 21, 2016 $4.99N/A (N/A)20,000 .. 50,0000%00:00 (00:00)
123 Polyball Dec 1, 2017 $14.99N/A (N/A)0 .. 20,0000%00:00 (00:00)
124 Sky Rogue Aug 24, 2017 $19.99N/A (N/A)50,000 .. 100,0000%00:00 (00:00)
125 Mysterious Space May 15, 2015 $10N/A (N/A)0 .. 20,0000%00:00 (00:00)
126 Action Alien Jun 26, 2015 $3.99N/A (N/A)50,000 .. 100,0000%00:00 (00:00)
127 Treeker: The Lost Glasses May 13, 2015 $2.99N/A (N/A)0 .. 20,0000%00:00 (00:00)
128 Dead In Bermuda Aug 27, 2015 $14.99N/A (N/A)20,000 .. 50,0000%00:00 (00:00)
129 Season of 12 Colors Mar 14, 2016 $2.99N/A (N/A)20,000 .. 50,0000%00:00 (00:00)
130 Hare In The Hat Apr 1, 2015 $1.99N/A (N/A)20,000 .. 50,0000%00:00 (00:00)
131 Cosmophony Jul 9, 2015 $4.99N/A (N/A)0 .. 20,0000%00:00 (00:00)
132 Kiai Resonance Apr 21, 2015 $4.99N/A (N/A)20,000 .. 50,0000%00:00 (00:00)
133 Shoot 1UP Sep 23, 2015 $3.99N/A (N/A)0 .. 20,0000%00:00 (00:00)
134 Spellsworn Mar 13, 2018 FreeN/A (N/A)100,000 .. 200,0005%04:10 (01:23)
135 The Adventures of Mr. Bobley Jun 30, 2015 $0.99N/A (N/A)50,000 .. 100,0000%00:00 (00:00)
136 Escape Goat 2 Mar 24, 2014 $9.99N/A (N/A/76%)50,000 .. 100,0000%00:00 (00:00)
137 Element4l May 24, 2013 $8.99N/A (N/A/77%)50,000 .. 100,0000%00:00 (00:00)
138 Survivor Squad Nov 8, 2013 $2.99N/A (N/A)100,000 .. 200,0000%00:00 (00:00)
139 Super Puzzle Platformer Deluxe May 24, 2013 $7.99N/A (N/A)50,000 .. 100,0000%00:00 (00:00)
140 Montague's Mount Nov 19, 2013 $4.99N/A (N/A/39%)20,000 .. 50,0000%00:00 (00:00)
141 Poöf Nov 8, 2013 $6.99N/A (N/A)20,000 .. 50,0000%00:00 (00:00)
142 Ballpoint Universe - Infinite Dec 17, 2013 $3.99N/A (N/A)50,000 .. 100,0000%00:00 (00:00)
143 The Novelist Dec 10, 2013 $0.99N/A (N/A/66%)100,000 .. 200,0000%00:00 (00:00)
144 STARWHAL Sep 29, 2014 $11.99N/A (N/A)50,000 .. 100,0000%00:00 (00:00)
145 Escape Goat Oct 9, 2013 $4.99N/A (N/A)50,000 .. 100,0000%00:00 (00:00)
146 Bad Hotel Oct 16, 2013 $4.99N/A (N/A)50,000 .. 100,0000%00:00 (00:00)
147 Solar Flux Oct 24, 2013 $9.99N/A (N/A)100,000 .. 200,0000%00:00 (00:00)
148 Godus $14.99N/A (N/A)50,000 .. 100,0000%00:00 (00:00)
149 FOTONICA Nov 6, 2014 $1.49N/A (N/A/71%)50,000 .. 100,0000%00:00 (00:00)
150 Wake $4.99N/A (N/A)0 .. 20,0000%00:00 (00:00)
151 Gentlemen! Nov 5, 2013 $4.99N/A (N/A)20,000 .. 50,0000%00:00 (00:00)
152 Zack Zero Apr 29, 2013 $2.99N/A (N/A)50,000 .. 100,0000%00:00 (00:00)
153 Earth Overclocked Dec 4, 2015 $4.99N/A (N/A)20,000 .. 50,0000%00:00 (00:00)
154 Press X to Not Die Oct 6, 2017 $2.99N/A (N/A)50,000 .. 100,0000%00:00 (00:00)
155 Redemption: Eternal Quest Aug 28, 2015 $1.99N/A (N/A)100,000 .. 200,0000%00:00 (00:00)
156 1,000 Heads Among the Trees Dec 11, 2015 $4.99N/A (N/A)100,000 .. 200,0000%00:00 (00:00)
157 Angry Arrows Aug 12, 2015 $4.99N/A (N/A)0 .. 20,0000%00:00 (00:00)
158 The Purring Quest Nov 12, 2015 $9.99N/A (N/A)50,000 .. 100,0000%00:00 (00:00)
159 The Musketeers: Victoria's Quest Jan 7, 2014 $1.19N/A (N/A)0 .. 20,0000%00:00 (00:00)
160 Perraw - FPS Clone War Alpha Jan 29, 2016 $0.99N/A (N/A)0 .. 20,0000%00:00 (00:00)
161 Void Invaders Aug 14, 2015 $2.99N/A (N/A)20,000 .. 50,0000%00:00 (00:00)
162 Morphine Oct 26, 2015 $2.99N/A (N/A)20,000 .. 50,0000%00:00 (00:00)
163 Blaster Shooter GunGuy! Aug 10, 2015 $0.99N/A (N/A)50,000 .. 100,0000%00:00 (00:00)
164 Aviary Attorney Dec 21, 2015 $14.99N/A (N/A/77%)50,000 .. 100,0000%00:00 (00:00)
165 Dragon's Wake Dec 10, 2015 $3.99N/A (N/A)0 .. 20,0000%00:00 (00:00)
166 none Nov 4, 2015 N/AN/A (N/A)20,000 .. 50,0000%00:00 (00:00)
167 Kitchen Simulator 2015 Sep 4, 2015 $0.99N/A (N/A)20,000 .. 50,0000%00:00 (00:00)
168 A.I. Invasion Sep 30, 2015 $9.99N/A (N/A)0 .. 20,0000%00:00 (00:00)
169 ChargeShot Sep 18, 2015 $9.99N/A (N/A)20,000 .. 50,0000%00:00 (00:00)
170 Volt Apr 14, 2014 $0.99N/A (N/A)100,000 .. 200,0000%00:00 (00:00)
171 Jones On Fire Mar 14, 2013 $2.99N/A (N/A)50,000 .. 100,0000%00:00 (00:00)
172 Three Dead Zed Jul 7, 2014 $5.99N/A (N/A)50,000 .. 100,0000%00:00 (00:00)
173 Labyrinthine Dreams May 26, 2015 $1.99N/A (N/A)50,000 .. 100,0000%00:00 (00:00)
174 Uriel's Chasm Sep 12, 2014 $4.99N/A (N/A)200,000 .. 500,0000%00:00 (00:00)
175 Pulstar Jun 11, 2014 $1.99N/A (N/A)20,000 .. 50,0000%00:00 (00:00)
176 Cosmochoria Apr 27, 2015 $9.99N/A (N/A)20,000 .. 50,0000%00:00 (00:00)
177 Imagine Earth Sep 30, 2020 $12.99N/A (N/A)20,000 .. 50,0000%00:00 (00:00)
178 Stranded May 20, 2014 $0.99N/A (N/A)20,000 .. 50,0000%00:00 (00:00)
179 Munin Jun 10, 2014 $0.49N/A (N/A/68%)100,000 .. 200,0000%00:00 (00:00)
180 Full Bore May 6, 2014 $14.99N/A (N/A/72%)20,000 .. 50,0000%00:00 (00:00)
181 Rabbit Hole 3D: Steam Edition Apr 25, 2014 $2.99N/A (N/A)50,000 .. 100,0000%00:00 (00:00)
182 A-Men Jan 25, 2014 $9.99N/A (N/A)0 .. 20,0000%00:00 (00:00)
183 Kromaia Oct 23, 2014 $19.99N/A (N/A/68%)20,000 .. 50,0000%00:00 (00:00)
184 Imagine Me Mar 14, 2014 $2.99N/A (N/A)20,000 .. 50,0000%00:00 (00:00)
185 ReignMaker Apr 16, 2014 $14.99N/A (N/A)50,000 .. 100,0000%00:00 (00:00)
186 Procyon Feb 26, 2014 $3.99N/A (N/A)20,000 .. 50,0000%00:00 (00:00)

Tags over time:

Access restricted.

This feature is only available to users with special access rights. Sorry.

If you want to proceed, you need to register or log in first and then back Steam Spy on Patreon. Look for Indie or Pro pledge.

Don't forget to use the same email as on Steam Spy!

Owners of this game also own:

Access restricted.

This feature is only available to users with special access rights. Sorry.

If you want to proceed, you need to register or log in first and then back Steam Spy on Patreon. Look for Indie or Pro pledge.

Don't forget to use the same email as on Steam Spy!

Playtime distribution:

Access restricted.

This feature is only available to users with special access rights. Sorry.

If you want to proceed, you need to register or log in first and then back Steam Spy on Patreon. Look for Indie or Pro pledge.

Don't forget to use the same email as on Steam Spy!

Playtime (2 weeks):

Access restricted.

This feature is only available to users with special access rights. Sorry.

If you want to proceed, you need to register or log in first and then back Steam Spy on Patreon. Look for Indie or Pro pledge.

Don't forget to use the same email as on Steam Spy!

User reviews:

Login required.

Please register or log in to see this information.